Time;durP1;ratioP1;P1;durP2;ratioP2;P2;SDS_P1;SDS_P2;PMS_P1;PMS_P2;Temp;Humidity;BMP_temperature;BMP_pressure;BME280_temperature;BME280_humidity;BME280_pressure;Samples;Min_cycle;Max_cycle;Signal;HPM_P1;HPM_P2
2022/11/03 00:02:15;;;;;;;;;3.00;2.00;;;;;15.48;100.00;101259.75;5081031;27;46842;-75
2022/11/03 00:04:41;;;;;;;;;3.00;3.00;;;;;15.49;100.00;101253.53;5079981;27;53694;-75
2022/11/03 00:07:06;;;;;;;;;4.00;2.00;;;;;15.45;100.00;101244.69;5091253;27;52496;-75
2022/11/03 00:09:31;;;;;;;;;2.00;2.00;;;;;15.47;100.00;101250.88;5093831;27;56177;-76
2022/11/03 00:11:57;;;;;;;;;5.00;4.00;;;;;15.47;100.00;101256.19;5092683;27;45587;-75
2022/11/03 00:14:23;;;;;;;;;2.67;2.00;;;;;15.44;100.00;101234.91;5092898;27;45664;-76
2022/11/03 00:16:48;;;;;;;;;3.00;3.00;;;;;15.45;100.00;101234.03;5089827;27;58251;-75
2022/11/03 00:19:15;;;;;;;;;4.00;2.00;;;;;15.45;100.00;101239.38;5077926;27;58971;-76
2022/11/03 00:21:42;;;;;;;;;4.00;2.00;;;;;15.43;100.00;101235.81;5077632;27;46584;-74
2022/11/03 00:24:07;;;;;;;;;1.00;1.00;;;;;15.41;100.00;101235.81;5097130;27;45472;-75
2022/11/03 00:26:33;;;;;;;;;10.67;3.00;;;;;15.43;100.00;101233.13;5085085;27;45326;-76
2022/11/03 00:29:07;;;;;;;;;6.00;1.67;;;;;15.39;100.00;101226.97;5074718;27;45632;-76
2022/11/03 00:31:34;;;;;;;;;6.33;2.67;;;;;15.38;100.00;101230.50;5081674;27;46034;-75
2022/11/03 00:34:01;;;;;;;;;2.00;2.00;;;;;15.36;100.00;101218.97;5073728;27;45981;-75
2022/11/03 00:36:29;;;;;;;;;4.00;4.00;;;;;15.37;100.00;101214.53;5078026;27;45481;-75
2022/11/03 00:38:54;;;;;;;;;4.00;2.00;;;;;15.37;100.00;101227.84;5068805;28;45335;-77
2022/11/03 00:41:21;;;;;;;;;3.67;3.00;;;;;15.35;100.00;101221.66;5093777;27;45577;-76
2022/11/03 00:43:48;;;;;;;;;3.67;2.00;;;;;15.35;100.00;101225.19;5095259;27;45315;-74
2022/11/03 00:46:13;;;;;;;;;4.00;3.00;;;;;15.34;100.00;101212.78;5096873;27;45257;-75
2022/11/03 00:48:39;;;;;;;;;3.67;2.33;;;;;15.32;100.00;101203.91;5092487;27;56852;-76
2022/11/03 00:51:05;;;;;;;;;1.33;1.33;;;;;15.33;100.00;101210.09;5067484;27;46597;-76
2022/11/03 00:53:32;;;;;;;;;4.00;2.33;;;;;15.29;100.00;101201.25;5090756;27;45333;-75
2022/11/03 00:55:58;;;;;;;;;2.67;2.00;;;;;15.31;100.00;101211.91;5065368;28;45542;-76
2022/11/03 00:58:24;;;;;;;;;2.00;2.00;;;;;15.26;100.00;101190.63;5094924;27;45336;-76
2022/11/03 01:00:49;;;;;;;;;3.00;3.00;;;;;15.26;100.00;101181.75;5080427;27;64288;-75
2022/11/03 01:03:14;;;;;;;;;2.67;2.67;;;;;15.20;100.00;101169.34;5075019;27;65270;-75
2022/11/03 01:08:25;;;;;;;;;3.00;1.67;;;;;15.15;100.00;101174.69;5086996;27;45440;-75
2022/11/03 01:13:34;;;;;;;;;4.00;2.33;;;;;15.09;100.00;101172.03;5078384;27;45404;-76
2022/11/03 01:16:00;;;;;;;;;3.33;2.00;;;;;15.10;100.00;101168.50;5091871;27;60240;-75
2022/11/03 01:18:25;;;;;;;;;5.67;3.67;;;;;15.08;100.00;101174.72;5088562;27;60642;-76
2022/11/03 01:20:55;;;;;;;;;3.00;3.00;;;;;15.07;100.00;101168.47;5091482;27;65252;-76
2022/11/03 01:23:21;;;;;;;;;5.00;1.33;;;;;15.04;100.00;101155.22;5079369;27;45362;-76
2022/11/03 01:25:46;;;;;;;;;4.00;3.67;;;;;15.07;100.00;101139.22;5088677;27;45639;-75
2022/11/03 01:28:11;;;;;;;;;3.00;2.00;;;;;15.08;100.00;101146.34;5083476;27;56394;-75
2022/11/03 01:30:37;;;;;;;;;3.67;2.00;;;;;15.07;100.00;101143.66;5061747;28;64617;-75
2022/11/03 01:33:02;;;;;;;;;2.67;2.00;;;;;15.09;100.00;101129.50;5090094;27;53759;-76
2022/11/03 01:35:27;;;;;;;;;2.33;2.00;;;;;15.07;100.00;101131.25;5059449;28;58714;-75
2022/11/03 01:37:55;;;;;;;;;5.67;3.00;;;;;15.10;100.00;101120.63;5073546;28;45518;-75
2022/11/03 01:40:21;;;;;;;;;8.00;4.00;;;;;15.09;100.00;101113.53;5070406;27;46207;-74
2022/11/03 01:42:46;;;;;;;;;3.67;2.00;;;;;15.08;100.00;101119.75;5094329;27;45604;-75
2022/11/03 01:45:11;;;;;;;;;4.67;3.00;;;;;15.06;100.00;101115.31;5079336;27;45521;-74
2022/11/03 01:47:37;;;;;;;;;5.00;3.00;;;;;15.02;100.00;101095.84;5088325;27;58510;-77
2022/11/03 01:50:11;;;;;;;;;7.67;3.00;;;;;15.01;100.00;101107.34;5072899;27;67559;-76
2022/11/03 01:52:41;;;;;;;;;5.33;3.00;;;;;14.99;100.00;101092.28;5090592;27;45479;-75
2022/11/03 01:55:12;;;;;;;;;4.00;3.00;;;;;14.99;100.00;101087.84;5068088;28;45336;-74
2022/11/03 01:57:48;;;;;;;;;5.00;3.67;;;;;14.96;100.00;101084.31;5065852;27;45438;-75
2022/11/03 02:00:14;;;;;;;;;4.00;2.00;;;;;14.98;100.00;101090.53;5084902;27;45303;-76
2022/11/03 02:02:40;;;;;;;;;3.00;2.00;;;;;14.98;100.00;101082.53;5079816;27;45241;-76
2022/11/03 02:05:07;;;;;;;;;4.67;3.00;;;;;14.97;100.00;101076.34;5080983;27;45219;-74
2022/11/03 02:08:00;;;;;;;;;4.00;2.00;;;;;14.97;100.00;101067.44;5047681;28;45737;-75
2022/11/03 02:10:25;;;;;;;;;3.00;3.00;;;;;14.95;100.00;101062.16;5076193;27;48766;-75
2022/11/03 02:12:51;;;;;;;;;5.00;2.00;;;;;14.94;100.00;101071.91;5095873;27;62308;-74
2022/11/03 02:15:18;;;;;;;;;6.67;4.00;;;;;14.96;100.00;101063.91;5091037;27;62522;-75
2022/11/03 02:17:45;;;;;;;;;4.00;2.67;;;;;14.93;100.00;101048.00;5092888;27;45329;-74
2022/11/03 02:20:14;;;;;;;;;3.00;3.00;;;;;14.97;100.00;101049.75;5100580;27;46557;-75
2022/11/03 02:22:52;;;;;;;;;5.00;4.00;;;;;14.96;100.00;101047.06;5091476;27;45461;-76
2022/11/03 02:25:39;;;;;;;;;2.33;2.33;;;;;14.97;100.00;101049.75;5100572;27;45517;-76
2022/11/03 02:28:05;;;;;;;;;1.67;1.00;;;;;14.96;100.00;101033.78;5090972;27;45499;-74
2022/11/03 02:31:02;;;;;;;;;5.33;1.67;;;;;14.99;100.00;101034.66;5089433;27;45639;-76
2022/11/03 02:33:56;;;;;;;;;8.00;3.00;;;;;14.99;100.00;101024.03;5094493;27;45402;-75
2022/11/03 02:36:33;;;;;;;;;3.33;3.33;;;;;14.97;100.00;101024.91;5112897;27;45593;-76
2022/11/03 02:39:13;;;;;;;;;4.67;2.00;;;;;14.97;100.00;101012.53;5100433;27;45349;-75
2022/11/03 02:41:39;;;;;;;;;2.00;2.00;;;;;14.97;100.00;101012.53;5093946;27;46905;-76
2022/11/03 02:44:10;;;;;;;;;2.00;2.00;;;;;14.98;100.00;101008.09;5092190;27;45476;-75
2022/11/03 02:46:36;;;;;;;;;3.00;3.00;;;;;14.97;100.00;101007.22;5098973;27;45389;-75
2022/11/03 02:49:01;;;;;;;;;8.33;5.33;;;;;14.97;100.00;100996.56;5104896;27;45499;-76
2022/11/03 02:51:27;;;;;;;;;3.00;3.00;;;;;15.00;100.00;101007.19;5089767;27;49781;-75
2022/11/03 02:54:03;;;;;;;;;4.33;3.00;;;;;14.99;100.00;100989.47;5099903;27;45356;-75
2022/11/03 02:56:30;;;;;;;;;4.33;3.00;;;;;14.97;100.00;100983.28;5090601;27;45340;-76
2022/11/03 02:59:01;;;;;;;;;2.00;2.00;;;;;14.99;100.00;100972.63;5100147;27;45252;-77
2022/11/03 03:01:45;;;;;;;;;3.00;3.00;;;;;14.95;100.00;100958.44;5098319;27;46706;-76
2022/11/03 03:04:15;;;;;;;;;7.00;3.67;;;;;14.97;100.00;100962.00;5099111;27;45510;-76
2022/11/03 03:06:47;;;;;;;;;4.00;2.00;;;;;14.93;100.00;100953.16;5096505;27;45438;-77
2022/11/03 03:09:20;;;;;;;;;2.00;2.00;;;;;14.95;100.00;100937.19;5095038;27;45527;-76
2022/11/03 03:11:48;;;;;;;;;2.00;2.00;;;;;14.96;100.00;100936.28;5105577;27;46475;-76
2022/11/03 03:14:19;;;;;;;;;3.67;2.00;;;;;14.97;100.00;100932.75;5092658;27;45355;-75
2022/11/03 03:16:59;;;;;;;;;3.00;2.00;;;;;14.94;100.00;100899.06;5091607;27;45459;-76
2022/11/03 03:19:37;;;;;;;;;4.33;3.00;;;;;14.98;100.00;100905.28;5092227;27;45506;-77
2022/11/03 03:22:12;;;;;;;;;3.00;2.00;;;;;14.98;100.00;100907.94;5099190;27;46744;-76
2022/11/03 03:24:48;;;;;;;;;4.33;3.00;;;;;14.97;100.00;100903.50;5090279;27;45419;-76
2022/11/03 03:27:16;;;;;;;;;3.00;1.00;;;;;14.99;100.00;100906.16;5088453;27;45588;-75
2022/11/03 03:29:46;;;;;;;;;2.00;2.00;;;;;14.99;100.00;100899.06;5094116;27;58082;-77
2022/11/03 03:32:14;;;;;;;;;3.67;3.00;;;;;14.97;100.00;100890.22;5092075;27;45426;-76
2022/11/03 03:34:42;;;;;;;;;3.00;2.00;;;;;14.97;100.00;100878.66;5081563;27;45217;-75
2022/11/03 03:37:09;;;;;;;;;2.00;2.00;;;;;14.99;100.00;100884.88;5090623;27;57530;-76
2022/11/03 03:39:37;;;;;;;;;3.00;2.00;;;;;14.98;100.00;100881.34;5097073;27;45283;-75
2022/11/03 03:42:03;;;;;;;;;5.67;4.00;;;;;14.96;100.00;100875.13;5098121;27;45937;-76
2022/11/03 03:44:29;;;;;;;;;6.33;2.00;;;;;14.91;100.00;100879.59;5097888;27;45269;-76
2022/11/03 03:47:07;;;;;;;;;6.33;2.00;;;;;14.91;100.00;100882.25;5085195;27;66966;-76
2022/11/03 03:49:32;;;;;;;;;3.67;2.00;;;;;14.88;100.00;100875.19;5093796;27;45389;-75
2022/11/03 03:51:58;;;;;;;;;4.00;2.00;;;;;14.85;100.00;100869.00;5098863;27;45959;-76
2022/11/03 03:54:23;;;;;;;;;4.00;2.67;;;;;14.86;100.00;100877.00;5089937;27;63219;-75
2022/11/03 03:57:00;;;;;;;;;5.67;3.00;;;;;14.84;100.00;100876.09;5097610;27;63744;-77
2022/11/03 03:59:25;;;;;;;;;3.00;3.00;;;;;14.85;100.00;100879.63;5089080;27;45418;-76
2022/11/03 04:01:50;;;;;;;;;3.00;1.00;;;;;14.87;100.00;100888.50;5097051;27;63902;-77
2022/11/03 04:04:16;;;;;;;;;1.00;1.00;;;;;14.85;100.00;100874.31;5098076;27;65623;-75
2022/11/03 04:06:41;;;;;;;;;4.00;1.00;;;;;14.85;100.00;100869.00;5093937;27;65075;-76
2022/11/03 04:09:08;;;;;;;;;4.00;2.00;;;;;14.84;100.00;100853.94;5099091;27;45451;-75
2022/11/03 04:22:31;;;;;;;;;5.00;3.00;;;;;14.80;100.00;100855.72;5095164;27;45854;-76
2022/11/03 04:24:57;;;;;;;;;7.00;2.33;;;;;14.82;100.00;100853.97;5098446;27;45454;-75
2022/11/03 04:27:29;;;;;;;;;3.67;3.00;;;;;14.83;100.00;100830.91;5098427;27;45291;-75
2022/11/03 04:30:01;;;;;;;;;2.67;2.67;;;;;14.81;100.00;100830.06;5098870;27;45375;-76
2022/11/03 04:32:28;;;;;;;;;4.67;3.00;;;;;14.81;100.00;100832.72;5100375;27;46665;-76
2022/11/03 04:34:53;;;;;;;;;5.00;2.00;;;;;14.82;100.00;100826.50;5098893;27;45466;-76
2022/11/03 04:37:19;;;;;;;;;2.00;2.00;;;;;14.79;100.00;100818.53;5097228;27;45402;-75
2022/11/03 04:39:44;;;;;;;;;4.67;3.00;;;;;14.78;100.00;100815.00;5096830;27;46638;-75
2022/11/03 04:42:16;;;;;;;;;4.00;4.00;;;;;14.78;100.00;100822.09;5114190;27;48500;-76
2022/11/03 04:44:41;;;;;;;;;4.33;2.00;;;;;14.79;100.00;100810.56;5093098;27;45278;-76
2022/11/03 04:47:11;;;;;;;;;1.67;1.67;;;;;14.79;100.00;100810.56;5092485;27;45282;-75
2022/11/03 04:49:36;;;;;;;;;2.33;2.00;;;;;14.76;100.00;100792.88;5091081;27;45383;-75
2022/11/03 04:52:02;;;;;;;;;2.00;2.00;;;;;14.77;100.00;100796.41;5099827;27;54110;-76
2022/11/03 04:54:27;;;;;;;;;6.00;2.67;;;;;14.76;100.00;100797.31;5092011;27;45294;-76
2022/11/03 04:56:53;;;;;;;;;4.00;2.00;;;;;14.76;100.00;100792.00;5097350;27;56294;-75
2022/11/03 04:59:18;;;;;;;;;6.00;4.33;;;;;14.75;100.00;100779.56;5087884;27;62185;-76
2022/11/03 05:01:45;;;;;;;;;1.00;1.00;;;;;14.78;100.00;100784.88;5094980;27;64536;-75
2022/11/03 05:04:16;;;;;;;;;4.33;3.00;;;;;14.74;100.00;100765.41;5097982;27;45360;-75
2022/11/03 05:06:50;;;;;;;;;3.00;2.00;;;;;14.78;100.00;100780.44;5097889;27;45302;-76
2022/11/03 05:09:19;;;;;;;;;2.67;2.67;;;;;14.75;100.00;100764.50;5072004;27;45583;-76
2022/11/03 05:11:45;;;;;;;;;3.00;3.00;;;;;14.74;100.00;100754.78;5088378;27;46638;-75
2022/11/03 05:14:26;;;;;;;;;4.33;2.00;;;;;14.77;100.00;100760.06;5093314;27;45428;-76
2022/11/03 05:16:53;;;;;;;;;3.67;2.00;;;;;14.77;100.00;100753.88;5083934;27;45430;-76
2022/11/03 05:19:23;;;;;;;;;3.00;3.00;;;;;14.76;100.00;100746.81;5090140;27;45510;-75
2022/11/03 05:21:49;;;;;;;;;3.00;2.00;;;;;14.78;100.00;100745.00;5113179;27;46468;-76
2022/11/03 05:24:17;;;;;;;;;4.00;1.33;;;;;14.76;100.00;100725.53;5087717;27;45387;-77
2022/11/03 05:26:42;;;;;;;;;3.67;3.67;;;;;14.73;100.00;100709.59;5097520;27;45509;-76
2022/11/03 05:29:23;;;;;;;;;5.67;2.67;;;;;14.72;100.00;100708.72;5097872;27;45273;-76
2022/11/03 05:31:51;;;;;;;;;3.00;3.00;;;;;14.76;100.00;100706.94;5088335;27;47770;-76
2022/11/03 05:34:55;;;;;;;;;6.00;3.00;;;;;14.74;100.00;100698.94;5109183;27;45427;-76
2022/11/03 05:37:31;;;;;;;;;6.67;4.33;;;;;14.69;100.00;100682.16;5080027;27;45596;-75
2022/11/03 05:39:58;;;;;;;;;4.67;3.00;;;;;14.73;100.00;100697.19;5096711;27;45311;-76
2022/11/03 05:42:26;;;;;;;;;3.00;3.00;;;;;14.73;100.00;100683.91;5104364;27;46162;-76
2022/11/03 05:44:52;;;;;;;;;3.00;3.00;;;;;14.68;100.00;100669.78;5096511;27;45422;-76
2022/11/03 05:47:33;;;;;;;;;5.00;2.33;;;;;14.67;100.00;100650.28;5097358;27;45582;-77
2022/11/03 05:50:08;;;;;;;;;5.00;2.00;;;;;14.70;100.00;100646.75;5090823;27;45270;-76
2022/11/03 05:52:33;;;;;;;;;5.67;2.33;;;;;14.72;100.00;100641.41;5104214;27;47355;-74
2022/11/03 05:54:59;;;;;;;;;3.00;3.00;;;;;14.71;100.00;100637.00;5101631;27;66300;-76
2022/11/03 05:57:27;;;;;;;;;4.00;2.00;;;;;14.69;100.00;100644.94;5102149;27;61341;-76
2022/11/03 05:59:52;;;;;;;;;2.00;2.00;;;;;14.72;100.00;100644.94;5100404;27;56006;-76
2022/11/03 06:02:36;;;;;;;;;5.33;3.00;;;;;14.75;100.00;100644.03;5096355;27;45342;-76
2022/11/03 06:05:11;;;;;;;;;2.67;2.00;;;;;14.73;100.00;100635.19;5100964;27;45386;-75
2022/11/03 06:07:37;;;;;;;;;1.33;1.33;;;;;14.73;100.00;100644.03;5109441;27;45367;-75
2022/11/03 06:10:20;;;;;;;;;3.00;2.00;;;;;14.72;100.00;100639.63;5108455;27;53630;-75
2022/11/03 06:12:46;;;;;;;;;5.33;3.33;;;;;14.71;100.00;100629.03;5080801;27;46528;-76
2022/11/03 06:15:23;;;;;;;;;5.67;3.00;;;;;14.68;100.00;100622.81;5096909;27;45411;-75
2022/11/03 06:17:50;;;;;;;;;4.00;3.00;;;;;14.66;100.00;100614.00;5079952;27;45339;-77
2022/11/03 06:20:19;;;;;;;;;3.33;3.33;;;;;14.65;100.00;100614.88;5085460;27;45615;-76
2022/11/03 06:22:44;;;;;;;;;6.00;3.00;;;;;14.61;100.00;100605.19;5074034;28;46588;-75
2022/11/03 06:25:30;;;;;;;;;2.67;2.67;;;;;14.64;100.00;100609.56;5076230;27;45477;-77
2022/11/03 06:27:59;;;;;;;;;1.67;1.33;;;;;14.63;100.00;100598.06;5085141;27;45365;-76
2022/11/03 06:30:30;;;;;;;;;4.33;3.00;;;;;14.60;100.00;100590.13;5094466;27;45353;-75
2022/11/03 06:32:59;;;;;;;;;4.00;3.33;;;;;14.61;100.00;100580.38;5068545;28;45799;-76
2022/11/03 06:35:25;;;;;;;;;4.00;3.00;;;;;14.58;100.00;100581.28;5076616;27;45287;-76
2022/11/03 06:37:50;;;;;;;;;4.00;2.00;;;;;14.61;100.00;100580.38;5089289;27;45373;-76
2022/11/03 06:40:31;;;;;;;;;4.67;3.00;;;;;14.62;100.00;100572.38;5102896;27;45345;-76
2022/11/03 06:42:57;;;;;;;;;4.00;2.00;;;;;14.64;100.00;100570.59;5098698;27;46488;-76
2022/11/03 06:45:24;;;;;;;;;4.00;2.67;;;;;14.63;100.00;100565.28;5099662;27;54986;-76
2022/11/03 06:47:51;;;;;;;;;6.00;3.00;;;;;14.64;100.00;100554.63;5094406;27;45355;-75
2022/11/03 06:50:21;;;;;;;;;5.33;3.00;;;;;14.66;100.00;100565.28;5085150;27;45330;-76
2022/11/03 06:52:48;;;;;;;;;4.00;2.00;;;;;14.64;100.00;100556.41;5091269;27;45708;-75
2022/11/03 06:55:21;;;;;;;;;3.00;3.00;;;;;14.64;100.00;100551.97;5084275;27;45464;-76
2022/11/03 06:57:47;;;;;;;;;3.00;3.00;;;;;14.67;100.00;100553.75;5080070;27;45580;-75
2022/11/03 07:00:22;;;;;;;;;4.67;3.00;;;;;14.68;100.00;100548.41;5091866;27;45385;-75
2022/11/03 07:02:55;;;;;;;;;3.00;3.00;;;;;14.68;100.00;100543.09;5083117;27;45657;-76
2022/11/03 07:05:26;;;;;;;;;4.33;3.00;;;;;14.67;100.00;100516.53;5067352;27;45573;-75
2022/11/03 07:07:57;;;;;;;;;3.67;2.67;;;;;14.70;100.00;100526.25;5095917;27;45335;-76
2022/11/03 07:10:25;;;;;;;;;6.67;3.00;;;;;14.65;100.00;100508.59;5076513;27;45351;-75
2022/11/03 07:12:50;;;;;;;;;5.00;4.33;;;;;14.68;100.00;100521.84;5081098;27;46515;-76
2022/11/03 07:15:24;;;;;;;;;3.00;3.00;;;;;14.68;100.00;100521.84;5091618;27;45321;-76
2022/11/03 07:17:50;;;;;;;;;5.00;4.00;;;;;14.68;100.00;100497.03;5081460;27;45382;-76
2022/11/03 07:20:15;;;;;;;;;3.00;2.00;;;;;14.68;100.00;100505.88;5083384;27;45314;-76
2022/11/03 07:22:41;;;;;;;;;3.00;3.00;;;;;14.65;100.00;100497.97;5071820;27;46618;-76
2022/11/03 07:25:20;;;;;;;;;4.00;4.00;;;;;14.69;100.00;100498.78;5080284;27;45373;-76
2022/11/03 07:27:49;;;;;;;;;4.67;3.00;;;;;14.69;100.00;100482.84;5086524;27;45197;-76
2022/11/03 07:30:19;;;;;;;;;2.00;2.00;;;;;14.74;100.00;100485.44;5082359;27;45322;-76
2022/11/03 07:32:45;;;;;;;;;3.00;2.00;;;;;14.77;100.00;100474.81;5082015;27;46723;-76
2022/11/03 07:35:16;;;;;;;;;2.00;2.00;;;;;14.78;100.00;100473.91;5070463;27;45404;-76
2022/11/03 07:37:46;;;;;;;;;3.33;3.00;;;;;14.80;100.00;100493.34;5098458;27;45473;-76
2022/11/03 07:40:23;;;;;;;;;4.00;2.67;;;;;14.82;100.00;100473.84;5081390;27;45282;-75
2022/11/03 07:42:55;;;;;;;;;6.00;2.00;;;;;14.80;100.00;100467.66;5075519;27;45842;-75
2022/11/03 07:45:40;;;;;;;;;6.00;4.00;;;;;14.86;100.00;100477.31;5079819;27;45355;-76
2022/11/03 07:48:26;;;;;;;;;3.00;3.00;;;;;14.87;100.00;100471.13;5075287;27;45319;-75
2022/11/03 07:50:54;;;;;;;;;2.00;2.00;;;;;14.86;100.00;100456.97;5080932;27;45482;-75
2022/11/03 07:53:33;;;;;;;;;6.00;3.00;;;;;14.88;100.00;100455.16;5097435;27;45845;-77
2022/11/03 07:55:58;;;;;;;;;3.00;3.00;;;;;14.88;100.00;100454.28;5078868;27;45528;-76
2022/11/03 07:58:33;;;;;;;;;4.00;4.00;;;;;14.92;100.00;100459.53;5066249;28;45506;-76
2022/11/03 08:01:00;;;;;;;;;4.67;3.67;;;;;14.91;100.00;100448.91;5081879;27;45191;-75
2022/11/03 08:03:35;;;;;;;;;4.67;2.00;;;;;14.94;100.00;100446.22;5063087;28;45951;-76
2022/11/03 08:06:00;;;;;;;;;3.67;3.00;;;;;14.98;100.00;100450.59;5065194;28;45259;-75
2022/11/03 08:08:25;;;;;;;;;6.00;3.00;;;;;14.98;100.00;100439.09;5083157;27;60416;-77
2022/11/03 08:10:51;;;;;;;;;4.00;4.00;;;;;15.02;100.00;100436.38;5092283;27;53701;-76
2022/11/03 08:13:16;;;;;;;;;4.33;3.67;;;;;15.04;100.00;100439.00;5090131;27;46086;-75
2022/11/03 08:15:42;;;;;;;;;6.00;2.00;;;;;15.06;100.00;100438.06;5079188;27;45326;-76
2022/11/03 08:18:07;;;;;;;;;6.00;1.67;;;;;15.09;100.00;100431.84;5092186;27;45369;-76
2022/11/03 08:20:33;;;;;;;;;4.00;3.00;;;;;15.12;100.00;100432.66;5085971;27;61041;-75
2022/11/03 08:22:58;;;;;;;;;2.33;2.33;;;;;15.13;100.00;100417.63;5089788;27;49228;-76
2022/11/03 08:25:23;;;;;;;;;3.33;3.33;;;;;15.13;100.00;100412.31;5082844;27;62151;-77
2022/11/03 08:27:49;;;;;;;;;3.00;3.00;;;;;15.20;100.00;100412.16;5085894;27;52925;-76
2022/11/03 08:30:15;;;;;;;;;5.33;3.33;;;;;15.25;100.00;100405.91;5081352;27;45287;-75
2022/11/03 08:32:40;;;;;;;;;3.00;2.67;;;;;15.26;100.00;100392.59;5081740;27;46103;-76
2022/11/03 08:35:06;;;;;;;;;4.00;3.00;;;;;15.31;100.00;100405.81;5078249;27;62154;-76
2022/11/03 08:37:31;;;;;;;;;3.00;3.00;;;;;15.33;100.00;100394.25;5078847;27;45490;-76
2022/11/03 08:39:56;;;;;;;;;4.67;3.00;;;;;15.32;100.00;100387.16;5096935;27;56623;-75
2022/11/03 08:42:21;;;;;;;;;4.00;3.33;;;;;15.30;100.00;100381.00;5094474;27;67361;-75
2022/11/03 08:44:47;;;;;;;;;3.00;3.00;;;;;15.37;100.00;100390.63;5093417;27;45318;-76
2022/11/03 08:47:12;;;;;;;;;2.00;2.00;;;;;15.34;100.00;100388.03;5092152;27;60578;-76
2022/11/03 08:49:37;;;;;;;;;7.00;2.00;;;;;15.35;100.00;100381.81;5070363;27;54286;-76
2022/11/03 08:52:03;;;;;;;;;6.00;3.00;;;;;15.37;100.00;100368.47;5090297;27;49592;-75
2022/11/03 08:54:28;;;;;;;;;5.67;4.33;;;;;15.36;100.00;100338.34;5066217;27;45257;-75
2022/11/03 08:56:53;;;;;;;;;3.00;3.00;;;;;15.43;100.00;100347.09;5087373;27;65766;-75
2022/11/03 08:59:19;;;;;;;;;5.00;3.00;;;;;15.41;100.00;100338.25;5089367;27;57346;-76
2022/11/03 09:01:44;;;;;;;;;5.00;3.00;;;;;15.44;100.00;100338.19;5083062;27;67844;-76
2022/11/03 09:04:09;;;;;;;;;5.00;4.00;;;;;15.47;100.00;100327.50;5052870;27;45955;-76
2022/11/03 09:06:35;;;;;;;;;5.67;3.00;;;;;15.50;100.00;100339.88;5094171;27;52610;-76
2022/11/03 09:09:00;;;;;;;;;4.33;2.33;;;;;15.46;100.00;100328.44;5091104;27;60938;-76
2022/11/03 09:11:25;;;;;;;;;5.33;4.00;;;;;15.50;100.00;100337.22;5245252;22;65012;-76
2022/11/03 09:13:51;;;;;;;;;4.33;3.33;;;;;15.46;100.00;100323.97;5130043;27;59786;-76
2022/11/03 09:16:16;;;;;;;;;4.00;3.00;;;;;15.45;100.00;100327.56;5130241;27;45357;-75
2022/11/03 09:18:41;;;;;;;;;3.00;3.00;;;;;15.48;100.00;100328.38;5113455;27;45504;-75
2022/11/03 09:21:07;;;;;;;;;5.00;4.00;;;;;15.45;100.00;100305.38;5129787;27;60093;-76
2022/11/03 09:23:33;;;;;;;;;4.67;3.00;;;;;15.49;100.00;100299.09;5131228;27;45271;-76
2022/11/03 09:25:58;;;;;;;;;3.00;3.00;;;;;15.49;100.00;100292.88;5138117;27;55656;-76
2022/11/03 09:28:23;;;;;;;;;4.00;3.00;;;;;15.49;100.00;100285.78;5154426;27;59385;-76
2022/11/03 09:30:49;;;;;;;;;4.00;4.00;;;;;15.54;100.00;100280.38;5134949;27;71799;-76
2022/11/03 09:33:14;;;;;;;;;5.33;4.00;;;;;15.57;100.00;100280.34;5137567;27;59252;-76
2022/11/03 09:35:39;;;;;;;;;3.00;3.00;;;;;15.60;100.00;100274.94;5139056;27;45328;-76
2022/11/03 09:38:06;;;;;;;;;2.67;2.67;;;;;15.64;100.00;100269.56;5138114;27;54229;-75
2022/11/03 09:40:32;;;;;;;;;7.00;4.00;;;;;15.66;100.00;100267.78;5139120;27;45685;-76
2022/11/03 09:42:57;;;;;;;;;3.33;3.33;;;;;15.71;100.00;100267.66;5119207;27;65856;-76
2022/11/03 09:45:22;;;;;;;;;3.00;2.67;;;;;15.74;100.00;100262.28;5138898;27;45231;-76
2022/11/03 09:47:48;;;;;;;;;7.00;3.00;;;;;15.77;100.00;100258.72;5138690;27;45435;-75
2022/11/03 09:50:18;;;;;;;;;6.00;3.00;;;;;15.78;100.00;100253.34;5119878;27;46451;-76
2022/11/03 09:52:43;;;;;;;;;3.00;3.00;;;;;15.82;100.00;100259.47;5105513;27;45410;-76
2022/11/03 09:55:14;;;;;;;;;2.00;2.00;;;;;15.88;100.00;100251.38;5108655;27;45345;-75
2022/11/03 09:57:39;;;;;;;;;3.00;3.00;;;;;15.94;100.00;100253.94;5101565;27;45191;-76
2022/11/03 10:00:12;;;;;;;;;3.00;3.00;;;;;15.96;100.00;100247.66;5102711;27;46284;-76
2022/11/03 10:02:38;;;;;;;;;3.67;2.00;;;;;16.07;100.00;100228.78;5101816;27;45331;-76
2022/11/03 10:05:04;;;;;;;;;3.00;3.00;;;;;16.15;100.00;100229.50;5124659;27;45261;-75
2022/11/03 10:07:30;;;;;;;;;3.33;3.33;;;;;16.25;100.00;100216.88;5133765;27;45500;-76
2022/11/03 10:09:57;;;;;;;;;3.33;3.00;;;;;16.29;100.00;100223.00;5118108;27;46722;-77
2022/11/03 10:12:24;;;;;;;;;3.67;3.00;;;;;16.38;100.00;100222.78;5114409;27;45356;-76
2022/11/03 10:14:49;;;;;;;;;5.67;2.67;;;;;16.44;100.00;100212.84;5122648;27;45489;-75
2022/11/03 10:17:20;;;;;;;;;3.00;3.00;;;;;16.47;100.00;100201.28;5105514;27;45485;-76
2022/11/03 10:19:48;;;;;;;;;5.00;4.00;;;;;16.54;100.00;100205.53;5119485;27;45556;-75
2022/11/03 10:22:14;;;;;;;;;3.00;2.00;;;;;16.61;100.00;100200.94;5119438;27;45427;-75
2022/11/03 10:24:40;;;;;;;;;4.33;3.00;;;;;16.67;100.00;100190.13;5138341;27;45325;-75
2022/11/03 10:27:22;;;;;;;;;3.33;2.33;;;;;16.73;100.00;100195.34;5114560;27;45482;-77
2022/11/03 10:30:07;;;;;;;;;4.33;3.00;;;;;16.80;100.00;100196.94;5127315;27;46972;-75
2022/11/03 10:32:33;;;;;;;;;5.00;2.67;;;;;16.82;100.00;100202.22;5103767;27;45499;-78
2022/11/03 10:34:59;;;;;;;;;3.00;3.00;;;;;16.82;100.00;100196.91;5115951;27;45351;-76
2022/11/03 10:37:25;;;;;;;;;3.00;3.00;;;;;16.82;100.00;100189.78;5137454;27;45494;-76
2022/11/03 10:39:53;;;;;;;;;3.33;2.33;;;;;16.85;100.00;100176.38;5128408;27;46515;-76
2022/11/03 10:42:24;;;;;;;;;2.33;2.00;;;;;16.90;100.00;100178.94;5140148;27;45294;-76
2022/11/03 10:44:52;;;;;;;;;2.00;2.00;;;;;16.98;100.00;100174.25;5119319;27;45569;-75
2022/11/03 10:47:35;;;;;;;;;4.33;3.00;;;;;17.03;100.00;100177.69;5126649;27;45253;-75
2022/11/03 10:50:24;;;;;;;;;2.00;2.00;;;;;17.07;100.00;100174.03;5112914;27;46333;-76
2022/11/03 10:52:49;;;;;;;;;3.00;2.00;;;;;17.07;100.00;100170.50;5134514;27;45368;-75
2022/11/03 10:55:16;;;;;;;;;2.33;2.33;;;;;17.05;100.00;100175.00;5117670;27;45389;-75
2022/11/03 10:57:42;;;;;;;;;2.00;2.00;;;;;17.06;100.00;100176.75;5112383;27;45310;-76
2022/11/03 11:00:15;;;;;;;;;3.67;2.67;;;;;17.05;100.00;100159.88;5120192;27;45725;-75
2022/11/03 11:02:48;;;;;;;;;2.00;2.00;;;;;17.02;100.00;100157.28;5141097;27;45338;-75
2022/11/03 11:05:21;;;;;;;;;3.33;1.67;;;;;17.02;100.00;100157.28;5117947;27;45516;-75
2022/11/03 11:07:50;;;;;;;;;2.00;2.00;;;;;17.02;100.00;100143.94;5114949;27;45508;-76
2022/11/03 11:10:17;;;;;;;;;4.00;3.33;;;;;17.04;100.00;100144.75;5133865;27;45825;-76
2022/11/03 11:13:01;;;;;;;;;3.00;2.00;;;;;17.10;100.00;100143.72;5106686;27;45533;-76
2022/11/03 11:15:40;;;;;;;;;3.00;2.00;;;;;17.08;100.00;100146.44;5128816;27;45563;-75
2022/11/03 11:18:06;;;;;;;;;1.33;1.33;;;;;17.11;100.00;100140.16;5131214;27;45444;-76
2022/11/03 11:20:34;;;;;;;;;3.67;2.00;;;;;17.06;100.00;100132.28;5121507;27;58638;-75
2022/11/03 11:23:30;;;;;;;;;3.00;3.00;;;;;17.01;100.00;100112.84;5140746;27;45195;-75
2022/11/03 11:26:05;;;;;;;;;1.00;1.00;;;;;17.02;100.00;100109.25;5141091;27;45314;-75
2022/11/03 11:28:30;;;;;;;;;1.33;1.00;;;;;16.99;100.00;100107.56;5141252;27;45208;-76
2022/11/03 11:30:56;;;;;;;;;4.00;1.00;;;;;16.96;100.00;100120.97;5140006;27;59794;-77
2022/11/03 11:33:24;;;;;;;;;2.00;2.00;;;;;16.90;100.00;100142.47;5122154;27;45309;-75
2022/11/03 11:35:50;;;;;;;;;2.33;2.00;;;;;16.85;100.00;100139.06;5115092;27;45358;-75
2022/11/03 11:38:45;;;;;;;;;2.33;2.33;;;;;16.85;100.00;100114.19;5127436;27;45661;-76
2022/11/03 11:41:11;;;;;;;;;3.33;3.00;;;;;16.84;100.00;100121.31;5140169;27;46028;-75
2022/11/03 11:43:36;;;;;;;;;3.00;3.00;;;;;16.83;100.00;100121.31;5117615;27;66154;-77